createdAt,value
2019-02-28T00:01:48.463Z,4.73
2019-02-28T00:07:02.668Z,5.97
2019-02-28T00:12:17.439Z,4.93
2019-02-28T00:17:31.823Z,5.63
2019-02-28T00:22:49.225Z,4.73
2019-02-28T00:28:02.293Z,5.03
2019-02-28T00:33:16.788Z,4.53
2019-02-28T00:38:31.482Z,4.87
2019-02-28T00:43:45.887Z,5.33
2019-02-28T00:49:00.201Z,5.83
2019-02-28T00:54:14.800Z,5.37
2019-02-28T00:59:31.696Z,5.23
2019-02-28T01:04:44.904Z,5.27
2019-02-28T01:10:01.355Z,5.03
2019-02-28T01:15:15.850Z,4.83
2019-02-28T01:20:30.309Z,5.40
2019-02-28T01:25:44.935Z,4.73
2019-02-28T01:31:02.191Z,5.53
2019-02-28T01:36:16.965Z,5.80
2019-02-28T01:41:30.866Z,4.77
2019-02-28T01:46:48.461Z,5.20
2019-02-28T01:52:01.193Z,5.17
2019-02-28T01:57:15.808Z,5.50
2019-02-28T02:02:30.003Z,5.37
2019-02-28T02:07:44.860Z,5.03
2019-02-28T02:12:59.390Z,5.27
2019-02-28T02:18:13.456Z,6.03
2019-02-28T02:23:27.919Z,4.67
2019-02-28T02:28:43.500Z,5.13
2019-02-28T02:33:57.892Z,5.07
2019-02-28T02:39:16.329Z,5.17
2019-02-28T02:44:31.892Z,4.40
2019-02-28T02:49:44.658Z,5.33
2019-02-28T02:54:59.145Z,4.90
2019-02-28T03:00:15.890Z,5.77
2019-02-28T03:05:34.910Z,5.83
2019-02-28T03:10:46.573Z,4.73
2019-02-28T03:16:00.935Z,5.80
2019-02-28T03:21:16.458Z,4.97
2019-02-28T03:26:31.150Z,5.67
2019-02-28T03:31:55.198Z,5.40
2019-02-28T03:37:02.861Z,5.10
2019-02-28T03:42:17.578Z,5.17
2019-02-28T03:47:32.098Z,5.30
2019-02-28T03:52:46.629Z,4.83
2019-02-28T03:58:05.508Z,5.80
2019-02-28T04:03:16.975Z,5.37
2019-02-28T04:08:31.283Z,4.97
2019-02-28T04:13:45.876Z,5.07
2019-02-28T04:19:00.387Z,5.53
2019-02-28T04:24:14.844Z,5.23
2019-02-28T04:29:31.128Z,5.53
2019-02-28T04:34:45.720Z,5.53
2019-02-28T04:40:02.184Z,5.43
2019-02-28T04:45:16.699Z,6.17
2019-02-28T04:50:32.266Z,5.60
2019-02-28T04:55:46.703Z,5.40
2019-02-28T05:01:01.788Z,4.87
2019-02-28T05:06:18.362Z,5.83
2019-02-28T05:11:33.682Z,6.07
2019-02-28T05:16:49.735Z,6.00
2019-02-28T05:22:04.357Z,5.43
2019-02-28T05:27:19.783Z,6.13
2019-02-28T05:32:35.567Z,5.87
2019-02-28T05:37:51.850Z,6.43
2019-02-28T05:43:06.066Z,6.00
2019-02-28T05:48:20.783Z,6.47
2019-02-28T05:53:35.189Z,6.10
2019-02-28T05:58:52.509Z,6.73
2019-02-28T06:04:05.727Z,5.97
2019-02-28T06:09:20.268Z,5.80
2019-02-28T06:14:48.816Z,5.93
2019-02-28T06:20:06.193Z,5.90
2019-02-28T06:25:24.113Z,6.00
2019-02-28T06:30:36.367Z,5.57
2019-02-28T06:35:53.567Z,5.90
2019-02-28T06:41:07.577Z,5.43
2019-02-28T06:46:22.886Z,5.17
2019-02-28T06:51:37.712Z,6.40
2019-02-28T06:56:54.102Z,5.97
2019-02-28T07:02:08.996Z,7.70
2019-02-28T07:07:24.509Z,8.40
2019-02-28T07:12:38.758Z,9.60
2019-02-28T07:17:53.466Z,8.73
2019-02-28T07:23:07.884Z,8.37
2019-02-28T07:28:23.160Z,8.30
2019-02-28T07:33:37.503Z,6.53
2019-02-28T07:38:52.188Z,7.53
2019-02-28T07:44:06.463Z,6.87
2019-02-28T07:49:21.021Z,7.60
2019-02-28T07:54:35.744Z,7.40
2019-02-28T07:59:51.145Z,6.83
2019-02-28T08:05:06.425Z,7.43
2019-02-28T08:10:21.285Z,6.20
2019-02-28T08:15:36.136Z,7.40
2019-02-28T08:20:50.337Z,5.97
2019-02-28T08:26:08.098Z,6.33
2019-02-28T08:31:22.417Z,5.70
2019-02-28T08:36:36.795Z,5.80
2019-02-28T08:41:51.133Z,5.40
2019-02-28T08:47:05.609Z,6.23
2019-02-28T08:52:19.653Z,5.57
2019-02-28T08:57:34.237Z,5.53
2019-02-28T09:02:52.427Z,4.90
2019-02-28T09:08:05.445Z,6.30
2019-02-28T09:13:20.064Z,5.80
2019-02-28T09:18:34.776Z,5.70
2019-02-28T09:23:49.302Z,6.60
2019-02-28T09:29:03.601Z,5.97
2019-02-28T09:34:17.925Z,5.90
2019-02-28T09:39:32.681Z,6.30
2019-02-28T09:44:46.847Z,5.57
2019-02-28T09:50:01.226Z,6.27
2019-02-28T09:55:15.766Z,6.60
2019-02-28T10:00:30.579Z,7.60
2019-02-28T10:05:44.944Z,9.17
2019-02-28T10:10:59.044Z,7.93
2019-02-28T10:16:13.576Z,10.73
2019-02-28T10:21:29.534Z,8.77
2019-02-28T10:26:43.915Z,7.77
2019-02-28T10:31:58.488Z,9.30
2019-02-28T10:37:13.038Z,8.90
2019-02-28T10:42:27.633Z,7.80
2019-02-28T10:47:41.983Z,9.20
2019-02-28T10:52:56.647Z,9.67
2019-02-28T10:58:12.457Z,8.77
2019-02-28T11:03:31.710Z,9.03
2019-02-28T11:08:47.466Z,9.23
2019-02-28T11:14:03.959Z,10.37
2019-02-28T11:19:18.665Z,8.30
2019-02-28T11:24:32.742Z,8.33
2019-02-28T11:29:47.287Z,8.30
2019-02-28T11:35:01.925Z,8.37
2019-02-28T11:40:18.591Z,8.77
2019-02-28T11:45:33.126Z,7.90
2019-02-28T11:50:47.588Z,7.80
2019-02-28T11:56:02.164Z,7.07
2019-02-28T12:01:16.788Z,8.80
2019-02-28T12:06:31.462Z,7.23
2019-02-28T12:11:46.060Z,8.90
2019-02-28T12:17:00.557Z,8.77
2019-02-28T12:22:15.236Z,9.23
2019-02-28T12:27:30.257Z,8.43
2019-02-28T12:32:44.538Z,7.57
2019-02-28T12:37:59.113Z,5.70
2019-02-28T12:43:13.634Z,5.97
2019-02-28T12:48:28.047Z,4.90
2019-02-28T12:53:42.608Z,5.47
2019-02-28T12:58:57.216Z,5.13
2019-02-28T13:04:20.015Z,5.50
2019-02-28T13:09:34.198Z,5.20
2019-02-28T13:14:48.682Z,5.57
2019-02-28T13:20:03.316Z,5.43
2019-02-28T13:25:19.371Z,4.50
2019-02-28T13:30:33.764Z,6.50
2019-02-28T13:35:47.920Z,5.30
2019-02-28T13:41:02.578Z,6.07
2019-02-28T13:46:17.269Z,6.10
2019-02-28T13:51:32.762Z,4.77
2019-02-28T13:56:47.728Z,6.30
2019-02-28T14:02:02.725Z,6.20
2019-02-28T14:07:17.384Z,5.37
2019-02-28T14:12:31.976Z,6.10
2019-02-28T14:17:46.254Z,6.17
2019-02-28T14:23:00.757Z,6.57
2019-02-28T14:28:16.531Z,6.23
2019-02-28T14:33:30.925Z,6.17
2019-02-28T14:38:45.538Z,5.57
2019-02-28T14:44:00.395Z,5.93
2019-02-28T14:49:14.566Z,5.50
2019-02-28T14:54:29.017Z,5.73
2019-02-28T14:59:43.723Z,5.97
2019-02-28T15:04:58.420Z,6.03
2019-02-28T15:10:14.681Z,6.47
2019-02-28T15:15:29.456Z,6.63
2019-02-28T15:20:43.907Z,5.30
2019-02-28T15:25:58.580Z,5.47
2019-02-28T15:31:13.692Z,5.37
2019-02-28T15:36:28.291Z,6.33
2019-02-28T15:41:42.761Z,6.27
2019-02-28T15:46:57.444Z,5.57
2019-02-28T15:52:14.350Z,6.03
2019-02-28T15:57:30.144Z,5.77
2019-02-28T16:02:44.944Z,6.63
2019-02-28T16:07:59.662Z,5.30
2019-02-28T16:13:14.353Z,5.67
2019-02-28T16:18:28.835Z,6.10
2019-02-28T16:23:43.690Z,5.70
2019-02-28T16:28:58.063Z,5.70
2019-02-28T16:34:12.529Z,5.50
2019-02-28T16:39:27.211Z,7.50
2019-02-28T16:44:41.452Z,10.20
2019-02-28T16:49:56.123Z,9.40
2019-02-28T16:55:11.057Z,9.50
2019-02-28T17:00:26.304Z,9.67
2019-02-28T17:05:40.610Z,9.13
2019-02-28T17:10:55.234Z,9.97
2019-02-28T17:16:42.323Z,9.40
2019-02-28T17:21:56.612Z,9.13
2019-02-28T17:27:45.340Z,9.57
2019-02-28T17:32:59.986Z,10.50
2019-02-28T17:38:14.467Z,10.70
2019-02-28T17:43:29.065Z,10.57
2019-02-28T17:49:09.172Z,9.30
2019-02-28T17:54:57.356Z,9.00
2019-02-28T18:00:41.262Z,7.73
2019-02-28T18:06:29.375Z,8.33
2019-02-28T18:12:34.221Z,8.70
2019-02-28T18:18:17.907Z,7.43
2019-02-28T18:24:14.540Z,8.03
2019-02-28T18:29:56.346Z,7.33
2019-02-28T18:35:10.635Z,6.80
2019-02-28T18:40:25.999Z,8.53
2019-02-28T18:45:41.473Z,9.53
2019-02-28T18:50:55.971Z,9.70
2019-02-28T19:01:24.806Z,8.70
2019-02-28T19:06:41.653Z,9.47
2019-02-28T19:11:56.295Z,8.30
2019-02-28T19:17:10.901Z,8.07
2019-02-28T19:22:25.300Z,7.00
2019-02-28T19:27:39.730Z,6.80
2019-02-28T19:32:54.174Z,5.73
2019-02-28T19:38:11.073Z,4.90
2019-02-28T19:43:25.793Z,5.73
2019-02-28T19:48:43.033Z,4.87
2019-02-28T19:53:57.826Z,4.83
2019-02-28T19:59:16.338Z,4.33
2019-02-28T20:04:30.934Z,4.33
2019-02-28T20:09:45.806Z,4.03
2019-02-28T20:15:00.658Z,4.20
2019-02-28T20:20:16.402Z,3.73
2019-02-28T20:25:38.009Z,3.80
2019-02-28T20:30:56.200Z,4.30
2019-02-28T20:36:10.758Z,3.70
2019-02-28T20:41:32.258Z,3.57
2019-02-28T20:47:06.075Z,2.80
2019-02-28T20:52:20.561Z,3.47
2019-02-28T20:57:37.968Z,3.03
2019-02-28T21:02:58.242Z,4.17
2019-02-28T21:08:16.037Z,3.37
2019-02-28T21:13:40.966Z,4.27
2019-02-28T21:18:55.417Z,3.80
2019-02-28T21:24:09.796Z,2.83
2019-02-28T21:29:26.793Z,3.53
2019-02-28T21:34:41.203Z,3.87
2019-02-28T21:39:57.810Z,3.30
2019-02-28T21:45:15.047Z,2.70
2019-02-28T21:50:29.797Z,3.67
2019-02-28T21:55:44.718Z,2.70
2019-02-28T22:00:59.538Z,2.77
2019-02-28T22:06:14.017Z,2.27
2019-02-28T22:11:28.812Z,2.90
2019-02-28T22:16:48.420Z,3.20
2019-02-28T22:22:06.166Z,2.50
2019-02-28T22:27:21.615Z,2.30
2019-02-28T22:32:49.513Z,2.50
2019-02-28T22:38:03.762Z,2.87
2019-02-28T22:43:18.075Z,2.13
2019-02-28T22:48:32.537Z,2.03
2019-02-28T22:53:51.558Z,2.43
2019-02-28T22:59:10.128Z,2.40
2019-02-28T23:04:24.938Z,2.33
2019-02-28T23:09:41.216Z,3.30
2019-02-28T23:14:55.555Z,1.90
2019-02-28T23:20:11.228Z,2.07
2019-02-28T23:25:25.999Z,2.20
2019-02-28T23:31:16.695Z,2.10
2019-02-28T23:36:31.209Z,2.00
2019-02-28T23:41:45.550Z,1.87
2019-02-28T23:47:00.025Z,2.13
2019-02-28T23:52:14.100Z,1.90
2019-02-28T23:57:28.748Z,2.10
